createdAt,value
2023-03-28T00:02:00.466Z,1.08
2023-03-28T00:05:01.785Z,0.73
2023-03-28T00:08:03.275Z,1.00
2023-03-28T00:11:04.586Z,0.70
2023-03-28T00:14:05.882Z,1.30
2023-03-28T00:17:07.177Z,1.20
2023-03-28T00:20:08.853Z,0.60
2023-03-28T00:23:10.161Z,0.70
2023-03-28T00:26:11.483Z,0.80
2023-03-28T00:29:12.776Z,0.88
2023-03-28T00:32:14.098Z,1.10
2023-03-28T00:35:15.385Z,0.90
2023-03-28T00:38:16.688Z,0.85
2023-03-28T00:41:17.960Z,0.80
2023-03-28T00:44:19.269Z,1.10
2023-03-28T00:47:20.565Z,0.73
2023-03-28T00:50:21.868Z,0.98
2023-03-28T00:53:23.150Z,0.88
2023-03-28T00:56:24.467Z,0.60
2023-03-28T00:59:25.758Z,0.70
2023-03-28T01:02:27.193Z,0.80
2023-03-28T01:05:28.571Z,1.08
2023-03-28T01:08:29.879Z,0.70
2023-03-28T01:11:31.366Z,0.70
2023-03-28T01:14:32.685Z,0.98
2023-03-28T01:17:33.994Z,0.80
2023-03-28T01:20:35.324Z,0.73
2023-03-28T01:23:36.618Z,0.82
2023-03-28T01:26:37.917Z,1.13
2023-03-28T01:29:39.186Z,0.65
2023-03-28T01:32:40.525Z,1.10
2023-03-28T01:35:41.894Z,0.90
2023-03-28T01:38:43.219Z,0.52
2023-03-28T01:41:44.498Z,1.00
2023-03-28T01:44:45.800Z,0.75
2023-03-28T01:47:47.117Z,0.60
2023-03-28T01:50:48.441Z,1.00
2023-03-28T01:53:49.721Z,0.90
2023-03-28T01:56:51.128Z,1.00
2023-03-28T01:59:52.475Z,0.80
2023-03-28T02:02:53.920Z,0.60
2023-03-28T02:05:55.240Z,0.70
2023-03-28T02:08:56.531Z,1.00
2023-03-28T02:11:57.803Z,1.27
2023-03-28T02:14:59.100Z,0.75
2023-03-28T02:18:00.496Z,0.85
2023-03-28T02:21:01.822Z,0.70
2023-03-28T02:24:03.129Z,0.93
2023-03-28T02:27:04.409Z,0.90
2023-03-28T02:30:05.695Z,0.73
2023-03-28T02:33:07.007Z,1.10
2023-03-28T02:36:08.323Z,0.75
2023-03-28T02:39:09.627Z,0.88
2023-03-28T02:42:10.911Z,0.90
2023-03-28T02:45:12.228Z,0.82
2023-03-28T02:48:13.503Z,0.73
2023-03-28T02:51:14.804Z,1.10
2023-03-28T02:54:16.104Z,0.80
2023-03-28T02:57:17.474Z,1.00
2023-03-28T03:00:18.795Z,0.68
2023-03-28T03:03:20.107Z,1.40
2023-03-28T03:06:21.416Z,1.05
2023-03-28T03:09:22.713Z,1.33
2023-03-28T03:12:24.029Z,0.80
2023-03-28T03:15:25.349Z,0.85
2023-03-28T03:18:26.625Z,0.73
2023-03-28T03:21:27.955Z,1.30
2023-03-28T03:24:29.241Z,0.82
2023-03-28T03:27:30.539Z,0.57
2023-03-28T03:30:31.846Z,1.00
2023-03-28T03:33:33.166Z,0.90
2023-03-28T03:36:34.454Z,0.70
2023-03-28T03:39:35.762Z,0.90
2023-03-28T03:42:38.297Z,0.87
2023-03-28T03:45:39.580Z,0.77
2023-03-28T03:48:49.404Z,1.50
2023-03-28T03:51:51.494Z,0.98
2023-03-28T03:54:52.782Z,0.60
2023-03-28T03:57:54.061Z,0.93
2023-03-28T04:00:55.373Z,0.70
2023-03-28T04:03:56.707Z,0.90
2023-03-28T04:06:58.031Z,0.77
2023-03-28T04:09:59.553Z,0.95
2023-03-28T04:13:00.856Z,0.60
2023-03-28T04:16:02.542Z,0.95
2023-03-28T04:19:04.165Z,1.00
2023-03-28T04:22:05.465Z,1.00
2023-03-28T04:25:06.751Z,1.08
2023-03-28T04:28:08.020Z,0.80
2023-03-28T04:31:09.340Z,1.20
2023-03-28T04:34:10.664Z,1.20
2023-03-28T04:37:11.985Z,1.05
2023-03-28T04:40:13.289Z,0.85
2023-03-28T04:43:14.605Z,0.67
2023-03-28T04:46:15.945Z,0.90
2023-03-28T04:49:17.282Z,0.93
2023-03-28T04:52:18.582Z,0.98
2023-03-28T04:55:19.898Z,1.65
2023-03-28T04:58:21.194Z,0.70
2023-03-28T05:01:22.628Z,0.90
2023-03-28T05:04:24.099Z,1.40
2023-03-28T05:07:25.386Z,0.80
2023-03-28T05:10:26.696Z,1.02
2023-03-28T05:13:28.073Z,1.07
2023-03-28T05:16:29.494Z,1.00
2023-03-28T05:19:30.885Z,1.30
2023-03-28T05:22:32.185Z,1.33
2023-03-28T05:25:33.629Z,0.85
2023-03-28T05:28:34.932Z,0.80
2023-03-28T05:31:36.271Z,0.98
2023-03-28T05:34:37.630Z,0.98
2023-03-28T05:37:42.138Z,0.95
2023-03-28T05:40:44.343Z,0.77
2023-03-28T05:43:45.657Z,0.83
2023-03-28T05:46:46.939Z,1.25
2023-03-28T05:49:48.245Z,2.38
2023-03-28T05:52:49.572Z,2.58
2023-03-28T05:55:50.886Z,1.95
2023-03-28T05:58:52.184Z,2.70
2023-03-28T06:01:53.478Z,1.90
2023-03-28T06:04:54.886Z,1.45
2023-03-28T06:07:56.451Z,1.85
2023-03-28T06:10:57.933Z,2.08
2023-03-28T06:13:59.321Z,1.70
2023-03-28T06:17:00.695Z,1.52
2023-03-28T06:20:02.248Z,2.58
2023-03-28T06:23:03.694Z,2.00
2023-03-28T06:26:05.011Z,1.58
2023-03-28T06:29:07.609Z,1.70
2023-03-28T06:32:09.117Z,2.00
2023-03-28T06:35:13.009Z,1.63
2023-03-28T06:38:14.408Z,2.10
2023-03-28T06:41:15.733Z,1.80
2023-03-28T06:44:17.025Z,1.33
2023-03-28T06:47:18.348Z,2.10
2023-03-28T06:50:19.636Z,2.28
2023-03-28T06:53:20.943Z,1.60
2023-03-28T06:56:22.255Z,1.90
2023-03-28T06:59:23.567Z,1.77
2023-03-28T07:02:24.941Z,1.50
2023-03-28T07:05:26.266Z,1.90
2023-03-28T07:08:27.652Z,1.90
2023-03-28T07:11:28.935Z,1.77
2023-03-28T07:14:30.243Z,1.97
2023-03-28T07:17:31.619Z,1.63
2023-03-28T07:20:32.935Z,2.38
2023-03-28T07:23:34.233Z,1.60
2023-03-28T07:26:35.559Z,1.55
2023-03-28T07:29:36.847Z,1.50
2023-03-28T07:32:47.862Z,1.83
2023-03-28T07:35:52.126Z,2.05
2023-03-28T07:38:53.467Z,1.42
2023-03-28T07:41:54.798Z,1.35
2023-03-28T07:44:56.106Z,1.37
2023-03-28T07:47:57.476Z,5.45
2023-03-28T07:50:59.069Z,6.20
2023-03-28T07:54:00.484Z,4.18
2023-03-28T07:57:01.816Z,2.97
2023-03-28T08:00:03.158Z,2.40
2023-03-28T08:03:04.588Z,2.45
2023-03-28T08:06:11.330Z,2.85
2023-03-28T08:09:18.235Z,2.25
2023-03-28T08:12:19.526Z,2.60
2023-03-28T08:15:20.847Z,2.00
2023-03-28T08:18:22.140Z,2.35
2023-03-28T08:21:25.643Z,2.63
2023-03-28T08:24:35.330Z,2.03
2023-03-28T08:27:37.197Z,3.20
2023-03-28T08:30:38.521Z,2.60
2023-03-28T08:33:39.818Z,1.90
2023-03-28T08:36:41.145Z,2.60
2023-03-28T08:39:42.446Z,2.05
2023-03-28T08:42:43.758Z,2.08
2023-03-28T08:45:45.049Z,2.17
2023-03-28T08:48:46.357Z,2.88
2023-03-28T08:51:47.690Z,2.75
2023-03-28T08:54:49.037Z,1.95
2023-03-28T08:57:50.344Z,1.42
2023-03-28T09:00:51.656Z,1.10
2023-03-28T09:03:53.135Z,1.63
2023-03-28T09:06:54.517Z,1.55
2023-03-28T09:09:55.824Z,1.45
2023-03-28T09:12:57.172Z,1.67
2023-03-28T09:15:58.488Z,1.30
2023-03-28T09:18:59.846Z,1.38
2023-03-28T09:25:05.364Z,0.82
2023-03-28T09:28:06.686Z,1.25
2023-03-28T09:31:07.992Z,0.83
2023-03-28T09:34:09.355Z,1.73
2023-03-28T09:37:11.479Z,1.40
2023-03-28T09:40:12.926Z,1.00
2023-03-28T09:43:14.255Z,1.05
2023-03-28T09:46:15.657Z,1.33
2023-03-28T09:49:17.044Z,1.55
2023-03-28T09:52:18.433Z,1.33
2023-03-28T09:55:19.776Z,1.83
2023-03-28T09:58:21.104Z,1.30
2023-03-28T10:01:23.571Z,1.53
2023-03-28T10:04:24.963Z,1.73
2023-03-28T10:07:26.329Z,1.40
2023-03-28T10:10:27.740Z,1.30
2023-03-28T10:13:29.039Z,1.60
2023-03-28T10:16:30.367Z,1.20
2023-03-28T10:19:31.741Z,1.40
2023-03-28T10:22:33.057Z,1.73
2023-03-28T10:25:34.370Z,1.52
2023-03-28T10:28:35.671Z,1.88
2023-03-28T10:31:37.048Z,1.80
2023-03-28T10:34:38.383Z,1.73
2023-03-28T10:37:39.717Z,1.60
2023-03-28T10:40:41.112Z,1.40
2023-03-28T10:43:42.509Z,1.90
2023-03-28T10:46:43.937Z,1.40
2023-03-28T10:49:45.295Z,2.67
2023-03-28T10:52:46.614Z,1.73
2023-03-28T10:55:47.912Z,1.80
2023-03-28T10:58:49.204Z,1.52
2023-03-28T11:01:50.545Z,2.20
2023-03-28T11:04:51.882Z,1.65
2023-03-28T11:07:53.228Z,1.95
2023-03-28T11:10:54.519Z,2.30
2023-03-28T11:13:55.869Z,1.67
2023-03-28T11:16:57.178Z,1.73
2023-03-28T11:19:58.523Z,1.65
2023-03-28T11:23:05.538Z,2.17
2023-03-28T11:26:07.863Z,1.30
2023-03-28T11:29:09.162Z,1.92
2023-03-28T11:32:10.520Z,3.27
2023-03-28T11:35:11.829Z,3.47
2023-03-28T11:38:13.147Z,3.33
2023-03-28T11:41:14.452Z,3.75
2023-03-28T11:44:15.774Z,3.30
2023-03-28T11:47:17.096Z,2.70
2023-03-28T11:50:18.390Z,2.30
2023-03-28T11:53:19.726Z,3.20
2023-03-28T11:56:21.017Z,2.17
2023-03-28T11:59:22.333Z,1.98
2023-03-28T12:02:23.670Z,2.07
2023-03-28T12:05:25.045Z,1.70
2023-03-28T12:08:26.416Z,1.60
2023-03-28T12:11:27.730Z,2.15
2023-03-28T12:14:29.037Z,1.80
2023-03-28T12:17:30.381Z,3.60
2023-03-28T12:20:31.701Z,2.28
2023-03-28T12:23:33.039Z,2.95
2023-03-28T12:26:34.356Z,2.10
2023-03-28T12:29:35.648Z,2.40
2023-03-28T12:32:36.972Z,2.40
2023-03-28T12:35:38.308Z,2.45
2023-03-28T12:38:39.718Z,1.35
2023-03-28T12:41:41.015Z,2.45
2023-03-28T12:44:42.362Z,2.30
2023-03-28T12:47:43.737Z,2.03
2023-03-28T12:50:45.090Z,2.35
2023-03-28T12:53:46.438Z,2.10
2023-03-28T12:56:47.793Z,2.20
2023-03-28T12:59:49.153Z,2.05
2023-03-28T13:02:50.472Z,1.70
2023-03-28T13:05:51.798Z,1.90
2023-03-28T13:08:53.090Z,1.55
2023-03-28T13:11:54.410Z,1.80
2023-03-28T13:14:55.700Z,2.00
2023-03-28T13:17:57.051Z,1.73
2023-03-28T13:20:58.467Z,3.47
2023-03-28T13:23:59.875Z,3.28
2023-03-28T13:27:01.167Z,4.30
2023-03-28T13:30:02.471Z,4.95
2023-03-28T13:33:04.012Z,3.10
2023-03-28T13:36:05.558Z,3.00
2023-03-28T13:39:07.290Z,2.17
2023-03-28T13:42:08.593Z,2.42
2023-03-28T13:45:09.891Z,1.80
2023-03-28T13:48:13.520Z,2.83
2023-03-28T13:51:15.137Z,2.45
2023-03-28T13:54:16.442Z,3.42
2023-03-28T13:57:17.931Z,2.20
2023-03-28T14:00:19.311Z,2.13
2023-03-28T14:03:20.635Z,2.07
2023-03-28T14:06:21.961Z,2.83
2023-03-28T14:09:23.249Z,2.10
2023-03-28T14:12:24.540Z,2.55
2023-03-28T14:15:25.833Z,1.90
2023-03-28T14:18:27.151Z,1.93
2023-03-28T14:21:28.450Z,2.33
2023-03-28T14:24:29.777Z,1.90
2023-03-28T14:27:31.099Z,3.65
2023-03-28T14:30:32.424Z,2.45
2023-03-28T14:33:33.787Z,2.30
2023-03-28T14:36:35.164Z,2.42
2023-03-28T14:39:36.476Z,3.05
2023-03-28T14:42:37.765Z,2.97
2023-03-28T14:45:39.102Z,3.58
2023-03-28T14:48:40.421Z,2.97
2023-03-28T14:51:41.759Z,2.85
2023-03-28T14:54:43.075Z,9.38
2023-03-28T14:57:44.361Z,5.78
2023-03-28T15:00:45.680Z,4.38
2023-03-28T15:03:47.073Z,4.20
2023-03-28T15:06:49.441Z,5.05
2023-03-28T15:09:51.782Z,5.13
2023-03-28T15:12:53.084Z,3.22
2023-03-28T15:15:54.420Z,2.75
2023-03-28T15:18:55.772Z,3.33
2023-03-28T15:21:57.070Z,2.85
2023-03-28T15:24:58.364Z,2.95
2023-03-28T15:27:59.657Z,2.78
2023-03-28T15:31:01.232Z,3.53
2023-03-28T15:34:02.722Z,2.10
2023-03-28T15:37:04.028Z,3.08
2023-03-28T15:40:05.315Z,2.72
2023-03-28T15:43:06.627Z,2.10
2023-03-28T15:46:07.977Z,2.75
2023-03-28T15:49:09.336Z,1.60
2023-03-28T15:52:10.657Z,1.90
2023-03-28T15:55:11.954Z,2.38
2023-03-28T15:58:13.267Z,2.17
2023-03-28T16:01:14.573Z,1.38
2023-03-28T16:04:15.914Z,2.07
2023-03-28T16:07:17.219Z,1.85
2023-03-28T16:10:18.543Z,1.48
2023-03-28T16:13:19.849Z,2.00
2023-03-28T16:16:21.190Z,1.48
2023-03-28T16:19:22.499Z,1.77
2023-03-28T16:22:23.827Z,1.50
2023-03-28T16:25:25.147Z,1.70
2023-03-28T16:28:26.460Z,1.50
2023-03-28T16:31:27.803Z,1.65
2023-03-28T16:34:29.132Z,1.70
2023-03-28T16:37:30.423Z,1.38
2023-03-28T16:40:31.841Z,1.42
2023-03-28T16:43:33.132Z,1.58
2023-03-28T16:46:34.523Z,1.30
2023-03-28T16:49:35.981Z,1.63
2023-03-28T16:52:37.322Z,1.80
2023-03-28T16:55:38.681Z,1.90
2023-03-28T16:58:39.981Z,1.15
2023-03-28T17:01:41.358Z,1.65
2023-03-28T17:04:42.954Z,1.20
2023-03-28T17:07:44.510Z,1.90
2023-03-28T17:10:45.828Z,1.55
2023-03-28T17:13:47.142Z,1.20
2023-03-28T17:16:49.314Z,1.80
2023-03-28T17:19:51.024Z,1.20
2023-03-28T17:22:52.403Z,1.05
2023-03-28T17:25:54.997Z,1.35
2023-03-28T17:28:56.512Z,1.90
2023-03-28T17:31:58.313Z,1.45
2023-03-28T17:35:00.170Z,1.07
2023-03-28T17:38:02.028Z,1.40
2023-03-28T17:41:03.715Z,1.95
2023-03-28T17:44:05.554Z,1.70
2023-03-28T17:47:07.424Z,1.30
2023-03-28T17:50:08.842Z,1.47
2023-03-28T17:53:11.974Z,1.52
2023-03-28T17:56:13.636Z,1.52
2023-03-28T17:59:14.997Z,1.75
2023-03-28T18:02:16.660Z,1.40
2023-03-28T18:05:18.494Z,1.27
2023-03-28T18:08:20.228Z,1.27
2023-03-28T18:11:22.072Z,1.30
2023-03-28T18:14:32.644Z,1.30
2023-03-28T18:17:34.679Z,1.08
2023-03-28T18:20:36.659Z,1.50
2023-03-28T18:23:38.423Z,1.73
2023-03-28T18:26:40.282Z,1.27
2023-03-28T18:29:42.929Z,1.50
2023-03-28T18:32:44.876Z,1.40
2023-03-28T18:35:46.728Z,1.47
2023-03-28T18:38:49.649Z,1.08
2023-03-28T18:41:51.208Z,1.30
2023-03-28T18:44:52.932Z,1.48
2023-03-28T18:47:54.831Z,1.80
2023-03-28T18:50:56.712Z,1.07
2023-03-28T18:53:59.182Z,1.63
2023-03-28T18:57:01.027Z,1.50
2023-03-28T19:00:02.980Z,1.15
2023-03-28T19:03:05.026Z,1.70
2023-03-28T19:06:06.975Z,1.30
2023-03-28T19:09:08.799Z,1.63
2023-03-28T19:12:10.724Z,1.58
2023-03-28T19:15:12.173Z,1.23
2023-03-28T19:18:13.990Z,1.10
2023-03-28T19:21:15.863Z,1.27
2023-03-28T19:24:17.242Z,1.63
2023-03-28T19:27:19.047Z,1.77
2023-03-28T19:30:20.900Z,1.48
2023-03-28T19:33:23.183Z,1.25
2023-03-28T19:36:25.204Z,2.03
2023-03-28T19:39:27.029Z,1.38
2023-03-28T19:42:30.919Z,1.00
2023-03-28T19:45:32.849Z,1.45
2023-03-28T19:48:34.666Z,1.30
2023-03-28T19:51:39.096Z,1.63
2023-03-28T19:54:40.948Z,0.93
2023-03-28T19:57:42.765Z,1.23
2023-03-28T20:00:44.540Z,1.65
2023-03-28T20:03:46.288Z,0.98
2023-03-28T20:06:48.171Z,1.50
2023-03-28T20:09:50.114Z,1.27
2023-03-28T20:12:52.003Z,1.58
2023-03-28T20:15:54.356Z,1.25
2023-03-28T20:18:56.276Z,1.40
2023-03-28T20:21:57.897Z,1.63
2023-03-28T20:24:59.572Z,1.35
2023-03-28T20:28:01.257Z,1.35
2023-03-28T20:31:02.951Z,1.35
2023-03-28T20:34:05.023Z,1.60
2023-03-28T20:37:07.186Z,1.37
2023-03-28T20:40:08.600Z,1.50
2023-03-28T20:43:10.096Z,1.55
2023-03-28T20:46:11.512Z,1.20
2023-03-28T20:49:12.888Z,1.38
2023-03-28T20:52:14.357Z,1.33
2023-03-28T20:55:15.670Z,1.60
2023-03-28T20:58:16.969Z,1.83
2023-03-28T21:01:18.345Z,1.35
2023-03-28T21:04:19.851Z,1.50
2023-03-28T21:07:21.203Z,1.50
2023-03-28T21:10:22.512Z,1.50
2023-03-28T21:13:23.814Z,1.90
2023-03-28T21:16:25.187Z,1.33
2023-03-28T21:19:26.508Z,1.50
2023-03-28T21:22:27.821Z,2.13
2023-03-28T21:25:29.146Z,1.52
2023-03-28T21:28:30.550Z,1.50
2023-03-28T21:31:31.881Z,1.25
2023-03-28T21:34:33.184Z,1.40
2023-03-28T21:37:34.479Z,1.10
2023-03-28T21:40:35.772Z,1.55
2023-03-28T21:43:37.085Z,1.58
2023-03-28T21:46:38.393Z,1.60
2023-03-28T21:49:39.701Z,1.50
2023-03-28T21:52:40.973Z,1.70
2023-03-28T21:55:42.257Z,1.30
2023-03-28T21:58:43.534Z,1.50
2023-03-28T22:01:44.860Z,1.73
2023-03-28T22:04:46.183Z,1.27
2023-03-28T22:07:47.503Z,1.60
2023-03-28T22:10:48.784Z,1.75
2023-03-28T22:13:50.091Z,1.95
2023-03-28T22:16:51.400Z,1.45
2023-03-28T22:19:52.708Z,1.45
2023-03-28T22:22:54.018Z,1.87
2023-03-28T22:25:55.305Z,1.90
2023-03-28T22:28:56.613Z,1.65
2023-03-28T22:31:57.904Z,1.70
2023-03-28T22:34:59.211Z,1.42
2023-03-28T22:38:00.520Z,1.47
2023-03-28T22:41:02.079Z,1.88
2023-03-28T22:44:03.545Z,2.05
2023-03-28T22:47:04.869Z,2.10
2023-03-28T22:50:06.177Z,1.90
2023-03-28T22:53:07.514Z,1.57
2023-03-28T22:56:08.834Z,2.00
2023-03-28T22:59:10.134Z,2.13
2023-03-28T23:02:11.541Z,1.73
2023-03-28T23:05:12.934Z,1.83
2023-03-28T23:08:14.253Z,2.00
2023-03-28T23:11:15.540Z,2.08
2023-03-28T23:14:16.853Z,2.17
2023-03-28T23:17:18.139Z,2.20
2023-03-28T23:20:19.438Z,2.38
2023-03-28T23:23:20.728Z,1.80
2023-03-28T23:26:22.020Z,2.28
2023-03-28T23:29:23.303Z,2.00
2023-03-28T23:32:24.685Z,2.28
2023-03-28T23:35:26.045Z,2.03
2023-03-28T23:38:27.333Z,2.03
2023-03-28T23:41:28.637Z,1.98
2023-03-28T23:44:29.927Z,2.00
2023-03-28T23:47:31.263Z,2.20
2023-03-28T23:50:32.577Z,1.92
2023-03-28T23:53:33.877Z,2.00
2023-03-28T23:56:35.203Z,1.80
2023-03-28T23:59:36.497Z,1.85
